createdAt,value
2022-10-18T00:00:01.996Z,1017.678563245334
2022-10-18T00:15:01.674Z,1017.7191652092854
2022-10-18T00:30:02.434Z,1017.8344317978269
2022-10-18T00:45:02.133Z,1017.9292277846482
2022-10-18T01:00:01.823Z,1017.8217093798398
2022-10-18T01:15:01.904Z,1017.7882412065132
2022-10-18T01:30:01.681Z,1017.678118220954
2022-10-18T01:45:02.362Z,1017.5539085838299
2022-10-18T02:00:01.961Z,1017.4611829651087
2022-10-18T02:15:01.636Z,1017.3811993620121
2022-10-18T02:30:02.301Z,1017.4758914121073
2022-10-18T02:45:01.978Z,1017.3395630852376
2022-10-18T03:00:01.640Z,1017.2083929520576
2022-10-18T03:15:02.298Z,1017.2285893525471
2022-10-18T03:30:01.995Z,1017.3612786501216
2022-10-18T03:45:01.668Z,1017.3106813335455
2022-10-18T04:00:02.334Z,1017.3644581577029
2022-10-18T04:15:01.981Z,1017.2204123802989
2022-10-18T04:30:02.211Z,1017.1809045550194
2022-10-18T04:45:01.863Z,1017.2454184109749
2022-10-18T05:00:02.517Z,1017.303879067721
2022-10-18T05:15:02.119Z,1017.4715310049213
2022-10-18T05:30:04.710Z,1017.460318352204
2022-10-18T05:45:02.466Z,1017.4931729379764
2022-10-18T06:00:02.195Z,1017.3721822398055
2022-10-18T06:15:01.844Z,1017.6294687265944
2022-10-18T06:30:02.536Z,1017.607033614812
2022-10-18T06:45:02.211Z,1017.8744840888271
2022-10-18T07:00:01.906Z,1018.0994459737409
2022-10-18T07:15:05.611Z,1018.3382555227499
2022-10-18T07:30:01.684Z,1018.4007886508275
2022-10-18T07:45:02.302Z,1018.514611651095
2022-10-18T08:00:01.913Z,1018.627977109974
2022-10-18T08:15:02.589Z,1018.8439339040374
2022-10-18T08:30:02.243Z,1018.7588679172862
2022-10-18T08:45:08.329Z,1018.9649760673814
2022-10-18T09:00:02.561Z,1019.2711727818186
2022-10-18T09:15:02.220Z,1019.2978176336527
2022-10-18T09:30:01.910Z,1019.4106360076976
2022-10-18T09:45:02.570Z,1019.4819477673065
2022-10-18T10:00:02.224Z,1019.3317190031771
2022-10-18T10:15:01.895Z,1019.3366523076307
2022-10-18T10:30:06.547Z,1019.4518790046627
2022-10-18T10:45:01.830Z,1019.3895860983091
2022-10-18T11:00:02.505Z,1019.3773134201718
2022-10-18T11:15:02.113Z,1019.3323317246399
2022-10-18T11:30:01.859Z,1019.3226719477466
2022-10-18T11:45:02.527Z,1019.2450404555074
2022-10-18T12:00:02.158Z,1019.234476244563
2022-10-18T12:15:01.842Z,1019.130383399973
2022-10-18T12:30:02.560Z,1019.1456741676566
2022-10-18T12:45:02.190Z,1019.1005675179347
2022-10-18T13:00:01.893Z,1019.0162556571191
2022-10-18T13:15:13.460Z,1019.1206501118098
2022-10-18T13:30:02.213Z,1019.163410594498
2022-10-18T13:45:01.887Z,1019.2055336891857
2022-10-18T14:00:02.685Z,1019.2419638721342
2022-10-18T14:15:02.545Z,1019.3577699227986
2022-10-18T14:30:02.266Z,1019.3370598191706
2022-10-18T14:45:02.027Z,1019.4533987997378
2022-10-18T15:00:01.868Z,1019.5191731600565
2022-10-18T15:15:01.652Z,1019.5954334085175
2022-10-18T15:30:02.319Z,1019.5570953232303
2022-10-18T15:45:01.931Z,1019.5851664348418
2022-10-18T16:00:01.601Z,1019.5453248506002
2022-10-18T16:15:02.240Z,1019.4564322049617
2022-10-18T16:30:02.400Z,1019.5965705063896
2022-10-18T16:45:01.840Z,1019.6806942758775
2022-10-18T17:00:02.487Z,1019.9266868555427
2022-10-18T17:15:02.110Z,1020.1364384063739
2022-10-18T17:30:01.869Z,1020.3313955258461
2022-10-18T17:45:02.534Z,1020.3607836935442
2022-10-18T18:00:02.152Z,1020.3461028006662
2022-10-18T18:15:01.797Z,1020.5623212008147
2022-10-18T18:30:02.502Z,1020.6416074035722
2022-10-18T18:45:02.127Z,1020.6057876779938
2022-10-18T19:00:01.852Z,1020.6926502767392
2022-10-18T19:15:02.538Z,1020.8363911048162
2022-10-18T19:30:02.196Z,1020.8294676594163
2022-10-18T19:45:01.870Z,1021.0255950604419
2022-10-18T20:00:04.429Z,1020.8675501621204
2022-10-18T20:15:02.486Z,1021.0563416978162
2022-10-18T20:30:03.091Z,1021.0876790413681
2022-10-18T21:00:01.732Z,1021.2478666984297
2022-10-18T21:15:02.356Z,1021.2671215036564
2022-10-18T21:30:02.136Z,1021.3521843695462
2022-10-18T21:45:01.855Z,1021.2425679506599
2022-10-18T22:00:02.608Z,1021.1538867094611
2022-10-18T22:15:02.238Z,1021.0556509774527
2022-10-18T22:30:01.993Z,1020.8895781794034
2022-10-18T22:45:01.713Z,1020.9756292828741
2022-10-18T23:00:02.372Z,1020.9104831990746
2022-10-18T23:15:02.061Z,1020.749772529205
2022-10-18T23:30:01.830Z,1020.7404571774307
2022-10-18T23:45:02.482Z,1020.7270538345845
